createdAt,value
2023-02-12T00:01:12.252Z,47.03
2023-02-12T00:03:41.215Z,55.22
2023-02-12T00:06:10.491Z,44.08
2023-02-12T00:08:39.792Z,45.20
2023-02-12T00:11:13.285Z,43.40
2023-02-12T00:13:42.129Z,47.78
2023-02-12T00:16:14.104Z,58.38
2023-02-12T00:18:43.010Z,47.03
2023-02-12T00:21:11.603Z,56.45
2023-02-12T00:23:41.317Z,49.90
2023-02-12T00:26:10.129Z,59.10
2023-02-12T00:28:40.316Z,51.35
2023-02-12T00:31:09.835Z,54.15
2023-02-12T00:33:39.567Z,42.10
2023-02-12T00:36:09.806Z,44.63
2023-02-12T00:38:38.013Z,48.67
2023-02-12T00:41:06.325Z,47.15
2023-02-12T00:43:34.897Z,47.13
2023-02-12T00:46:03.288Z,49.05
2023-02-12T00:48:31.658Z,49.75
2023-02-12T00:51:01.352Z,49.17
2023-02-12T00:53:29.898Z,49.03
2023-02-12T00:55:58.358Z,55.03
2023-02-12T00:58:27.023Z,55.70
2023-02-12T01:00:55.744Z,53.88
2023-02-12T01:03:24.992Z,52.92
2023-02-12T01:05:54.141Z,56.42
2023-02-12T01:08:24.144Z,51.45
2023-02-12T01:10:57.717Z,46.78
2023-02-12T01:13:26.901Z,48.72
2023-02-12T01:16:08.734Z,53.03
2023-02-12T01:18:37.372Z,49.90
2023-02-12T01:21:14.763Z,48.92
2023-02-12T01:23:45.072Z,42.63
2023-02-12T01:26:17.346Z,44.40
2023-02-12T01:28:49.506Z,40.40
2023-02-12T01:31:20.801Z,38.13
2023-02-12T01:33:50.505Z,44.38
2023-02-12T01:36:18.754Z,44.35
2023-02-12T01:38:50.879Z,43.05
2023-02-12T01:41:22.912Z,39.42
2023-02-12T01:44:10.270Z,42.90
2023-02-12T01:46:39.020Z,48.80
2023-02-12T01:49:10.803Z,50.10
2023-02-12T01:51:40.576Z,50.00
2023-02-12T01:54:13.057Z,49.60
2023-02-12T01:56:43.515Z,51.45
2023-02-12T01:59:12.689Z,52.50
2023-02-12T02:01:41.227Z,44.83
2023-02-12T02:04:13.410Z,50.60
2023-02-12T02:06:51.373Z,47.85
2023-02-12T02:09:21.686Z,45.20
2023-02-12T02:12:07.323Z,44.00
2023-02-12T02:14:36.127Z,34.47
2023-02-12T02:17:27.890Z,32.08
2023-02-12T02:20:37.974Z,30.95
2023-02-12T02:23:26.994Z,29.70
2023-02-12T02:26:29.184Z,32.20
2023-02-12T02:29:10.720Z,30.02
2023-02-12T02:31:43.891Z,30.73
2023-02-12T02:34:20.612Z,33.75
2023-02-12T02:37:00.470Z,26.95
2023-02-12T02:39:38.611Z,23.52
2023-02-12T02:42:21.287Z,23.73
2023-02-12T02:44:54.144Z,21.35
2023-02-12T02:47:32.569Z,22.42
2023-02-12T02:50:04.775Z,26.75
2023-02-12T02:52:37.291Z,26.58
2023-02-12T02:55:08.340Z,25.67
2023-02-12T02:57:42.814Z,25.08
2023-02-12T03:00:16.725Z,24.58
2023-02-12T03:02:52.157Z,24.73
2023-02-12T03:05:27.769Z,23.88
2023-02-12T03:08:01.256Z,29.63
2023-02-12T03:10:33.550Z,30.60
2023-02-12T03:13:08.384Z,32.33
2023-02-12T03:15:40.407Z,29.75
2023-02-12T03:18:15.929Z,28.38
2023-02-12T03:20:49.676Z,33.72
2023-02-12T03:23:23.861Z,29.70
2023-02-12T03:28:30.095Z,27.80
2023-02-12T03:31:04.388Z,29.35
2023-02-12T03:33:43.364Z,25.83
2023-02-12T03:36:20.440Z,24.35
2023-02-12T03:38:51.242Z,27.30
2023-02-12T03:41:26.267Z,26.83
2023-02-12T03:43:58.450Z,28.90
2023-02-12T03:46:34.845Z,27.00
2023-02-12T03:49:12.473Z,27.65
2023-02-12T03:51:42.888Z,28.85
2023-02-12T03:54:14.148Z,25.58
2023-02-12T03:56:52.165Z,26.25
2023-02-12T03:59:20.985Z,28.67
2023-02-12T04:01:50.860Z,28.83
2023-02-12T04:04:21.344Z,26.65
2023-02-12T04:06:51.481Z,28.77
2023-02-12T04:09:20.633Z,24.55
2023-02-12T04:12:00.958Z,23.55
2023-02-12T04:14:37.237Z,26.63
2023-02-12T04:17:12.378Z,23.75
2023-02-12T04:19:51.123Z,24.60
2023-02-12T04:22:31.256Z,22.67
2023-02-12T04:25:08.090Z,27.05
2023-02-12T04:27:43.725Z,30.13
2023-02-12T04:30:20.044Z,26.55
2023-02-12T04:32:52.206Z,26.15
2023-02-12T04:35:25.969Z,25.27
2023-02-12T04:38:00.401Z,26.63
2023-02-12T04:40:28.996Z,25.52
2023-02-12T04:42:57.292Z,27.20
2023-02-12T04:45:29.314Z,25.58
2023-02-12T04:47:57.815Z,34.05
2023-02-12T04:50:27.751Z,32.90
2023-02-12T04:52:56.258Z,28.25
2023-02-12T04:55:24.346Z,25.23
2023-02-12T04:57:52.632Z,25.88
2023-02-12T05:00:21.525Z,32.65
2023-02-12T05:02:49.685Z,32.17
2023-02-12T05:05:18.024Z,29.98
2023-02-12T05:07:48.448Z,28.05
2023-02-12T05:10:16.689Z,30.23
2023-02-12T05:12:45.099Z,28.73
2023-02-12T05:15:13.362Z,28.75
2023-02-12T05:17:41.457Z,28.92
2023-02-12T05:20:11.391Z,33.97
2023-02-12T05:22:39.901Z,25.40
2023-02-12T05:25:10.018Z,30.08
2023-02-12T05:27:38.302Z,28.88
2023-02-12T05:30:07.447Z,33.65
2023-02-12T05:32:35.537Z,36.70
2023-02-12T05:35:03.605Z,27.98
2023-02-12T05:37:32.223Z,28.25
2023-02-12T05:40:00.241Z,31.10
2023-02-12T05:42:30.561Z,31.35
2023-02-12T05:44:59.038Z,36.10
2023-02-12T05:47:27.232Z,30.02
2023-02-12T05:49:55.300Z,34.70
2023-02-12T05:52:23.761Z,32.88
2023-02-12T05:54:51.974Z,37.25
2023-02-12T05:57:20.215Z,35.20
2023-02-12T05:59:49.819Z,31.50
2023-02-12T06:02:17.972Z,28.35
2023-02-12T06:04:48.516Z,32.72
2023-02-12T06:07:17.209Z,29.05
2023-02-12T06:09:45.453Z,31.92
2023-02-12T06:12:13.755Z,31.70
2023-02-12T06:14:43.102Z,30.80
2023-02-12T06:17:12.599Z,32.38
2023-02-12T06:19:40.714Z,34.45
2023-02-12T06:22:11.416Z,34.10
2023-02-12T06:24:39.517Z,34.65
2023-02-12T06:27:07.571Z,27.98
2023-02-12T06:29:35.867Z,25.45
2023-02-12T06:32:04.087Z,29.38
2023-02-12T06:34:33.822Z,28.15
2023-02-12T06:37:02.081Z,28.10
2023-02-12T06:39:30.166Z,30.27
2023-02-12T06:41:58.406Z,31.00
2023-02-12T06:44:26.826Z,32.00
2023-02-12T06:46:54.976Z,30.65
2023-02-12T06:49:23.299Z,30.83
2023-02-12T06:51:52.927Z,29.88
2023-02-12T06:54:21.086Z,32.75
2023-02-12T06:56:49.113Z,34.45
2023-02-12T06:59:18.403Z,31.48
2023-02-12T07:01:46.614Z,31.55
2023-02-12T07:04:15.500Z,33.67
2023-02-12T07:06:45.261Z,34.15
2023-02-12T07:09:15.152Z,29.65
2023-02-12T07:11:43.461Z,31.20
2023-02-12T07:14:15.641Z,30.58
2023-02-12T07:16:43.948Z,29.58
2023-02-12T07:19:14.830Z,29.67
2023-02-12T07:21:43.433Z,28.83
2023-02-12T07:24:12.914Z,27.00
2023-02-12T07:26:43.030Z,24.15
2023-02-12T07:29:12.846Z,27.17
2023-02-12T07:31:41.402Z,26.55
2023-02-12T07:34:10.767Z,25.63
2023-02-12T07:36:39.564Z,22.98
2023-02-12T07:39:07.641Z,23.48
2023-02-12T07:41:37.314Z,25.60
2023-02-12T07:44:10.324Z,26.33
2023-02-12T07:46:41.115Z,26.25
2023-02-12T07:49:13.518Z,27.55
2023-02-12T07:51:42.347Z,22.52
2023-02-12T07:54:11.596Z,24.50
2023-02-12T07:56:41.910Z,24.05
2023-02-12T07:59:15.550Z,22.60
2023-02-12T08:01:46.598Z,22.42
2023-02-12T08:04:16.365Z,23.75
2023-02-12T08:06:46.384Z,26.55
2023-02-12T08:09:18.384Z,26.63
2023-02-12T08:11:46.988Z,23.25
2023-02-12T08:14:18.087Z,25.70
2023-02-12T08:16:48.098Z,26.33
2023-02-12T08:19:20.510Z,21.02
2023-02-12T08:21:51.680Z,20.85
2023-02-12T08:24:21.943Z,20.42
2023-02-12T08:26:50.916Z,19.92
2023-02-12T08:29:22.416Z,19.90
2023-02-12T08:31:51.572Z,18.58
2023-02-12T08:34:21.168Z,18.00
2023-02-12T08:36:51.132Z,16.60
2023-02-12T08:39:19.971Z,17.40
2023-02-12T08:41:48.796Z,15.88
2023-02-12T08:44:17.883Z,18.23
2023-02-12T08:46:50.219Z,15.73
2023-02-12T08:49:20.286Z,15.85
2023-02-12T08:51:50.391Z,13.73
2023-02-12T08:54:21.274Z,14.75
2023-02-12T08:56:49.533Z,14.85
2023-02-12T08:59:18.443Z,12.70
2023-02-12T09:01:52.098Z,11.60
2023-02-12T09:04:22.379Z,12.65
2023-02-12T09:06:51.964Z,13.07
2023-02-12T09:09:21.047Z,11.43
2023-02-12T09:11:49.640Z,12.90
2023-02-12T09:14:24.246Z,13.02
2023-02-12T09:16:54.906Z,10.23
2023-02-12T09:19:24.061Z,13.05
2023-02-12T09:21:55.739Z,11.45
2023-02-12T09:24:24.608Z,14.10
2023-02-12T09:26:52.671Z,12.90
2023-02-12T09:29:20.932Z,10.00
2023-02-12T09:31:49.161Z,8.75
2023-02-12T09:34:19.019Z,8.85
2023-02-12T09:36:47.474Z,9.77
2023-02-12T09:39:15.621Z,9.95
2023-02-12T09:42:11.840Z,8.82
2023-02-12T09:44:47.371Z,10.52
2023-02-12T09:47:22.611Z,7.57
2023-02-12T09:50:28.157Z,7.70
2023-02-12T09:52:59.249Z,6.85
2023-02-12T09:55:30.824Z,7.80
2023-02-12T09:57:59.708Z,8.63
2023-02-12T10:00:31.500Z,8.90
2023-02-12T10:03:05.281Z,8.05
2023-02-12T10:05:42.708Z,6.55
2023-02-12T10:08:35.825Z,6.40
2023-02-12T10:11:27.241Z,12.32
2023-02-12T10:14:05.200Z,7.18
2023-02-12T10:16:43.335Z,5.95
2023-02-12T10:19:26.541Z,6.75
2023-02-12T10:22:07.748Z,5.60
2023-02-12T10:24:57.427Z,5.53
2023-02-12T10:27:41.812Z,6.40
2023-02-12T10:30:19.489Z,5.80
2023-02-12T10:32:50.867Z,5.15
2023-02-12T10:35:21.512Z,5.38
2023-02-12T10:37:57.206Z,4.78
2023-02-12T10:40:29.921Z,5.13
2023-02-12T10:43:00.520Z,4.57
2023-02-12T10:45:32.137Z,3.90
2023-02-12T10:48:08.770Z,4.50
2023-02-12T10:50:48.173Z,5.72
2023-02-12T10:53:22.817Z,4.70
2023-02-12T10:55:51.639Z,3.97
2023-02-12T10:58:22.749Z,4.97
2023-02-12T11:00:59.305Z,5.20
2023-02-12T11:03:34.210Z,4.18
2023-02-12T11:06:15.387Z,4.22
2023-02-12T11:08:45.461Z,4.20
2023-02-12T11:11:16.993Z,3.72
2023-02-12T11:13:48.828Z,3.50
2023-02-12T11:16:29.093Z,3.70
2023-02-12T11:19:02.452Z,3.90
2023-02-12T11:21:30.839Z,3.67
2023-02-12T11:24:29.270Z,3.40
2023-02-12T11:27:13.847Z,3.50
2023-02-12T11:32:16.920Z,3.50
2023-02-12T11:34:45.020Z,3.65
2023-02-12T11:37:18.600Z,3.88
2023-02-12T11:39:51.414Z,2.95
2023-02-12T11:42:23.468Z,2.53
2023-02-12T11:44:54.171Z,2.50
2023-02-12T11:47:26.848Z,3.42
2023-02-12T11:49:57.973Z,2.67
2023-02-12T11:52:29.514Z,2.13
2023-02-12T11:55:02.218Z,1.58
2023-02-12T11:57:37.198Z,2.20
2023-02-12T12:00:13.253Z,4.70
2023-02-12T12:02:57.314Z,1.67
2023-02-12T12:05:31.331Z,2.67
2023-02-12T12:08:05.088Z,3.22
2023-02-12T12:10:39.345Z,3.10
2023-02-12T12:13:15.231Z,2.03
2023-02-12T12:16:05.299Z,1.92
2023-02-12T12:18:55.639Z,1.40
2023-02-12T12:21:30.298Z,2.28
2023-02-12T12:24:01.232Z,2.13
2023-02-12T12:26:34.358Z,1.98
2023-02-12T12:29:07.391Z,4.57
2023-02-12T12:31:38.503Z,2.42
2023-02-12T12:34:11.084Z,3.22
2023-02-12T12:37:14.613Z,2.38
2023-02-12T12:39:55.698Z,2.63
2023-02-12T12:42:54.499Z,3.08
2023-02-12T12:45:41.182Z,2.92
2023-02-12T12:48:23.574Z,3.13
2023-02-12T12:51:08.165Z,3.50
2023-02-12T12:56:34.656Z,6.25
2023-02-12T12:59:28.766Z,5.30
2023-02-12T13:02:21.411Z,4.93
2023-02-12T13:05:20.413Z,6.00
2023-02-12T13:07:57.806Z,4.30
2023-02-12T13:10:32.391Z,9.98
2023-02-12T13:13:15.111Z,6.93
2023-02-12T13:15:49.192Z,7.57
2023-02-12T13:20:56.299Z,6.45
2023-02-12T13:23:36.361Z,6.03
2023-02-12T13:26:12.692Z,5.32
2023-02-12T13:28:45.125Z,8.23
2023-02-12T13:31:32.613Z,7.18
2023-02-12T13:34:05.933Z,6.55
2023-02-12T13:36:36.356Z,7.70
2023-02-12T13:39:11.761Z,6.88
2023-02-12T13:41:43.003Z,6.35
2023-02-12T13:44:17.900Z,6.68
2023-02-12T13:46:57.447Z,9.13
2023-02-12T13:49:35.649Z,11.23
2023-02-12T13:52:08.310Z,9.93
2023-02-12T13:54:49.929Z,12.88
2023-02-12T13:57:19.768Z,10.60
2023-02-12T13:59:53.763Z,10.48
2023-02-12T14:02:45.963Z,10.18
2023-02-12T14:05:31.111Z,11.23
2023-02-12T14:08:03.461Z,10.95
2023-02-12T14:10:34.979Z,10.30
2023-02-12T14:13:34.040Z,10.35
2023-02-12T14:16:21.504Z,10.73
2023-02-12T14:18:50.936Z,9.30
2023-02-12T14:21:45.894Z,6.78
2023-02-12T14:24:47.433Z,6.53
2023-02-12T14:27:31.875Z,6.97
2023-02-12T14:30:25.564Z,10.05
2023-02-12T14:33:13.430Z,14.48
2023-02-12T14:35:43.792Z,12.15
2023-02-12T14:39:01.388Z,12.77
2023-02-12T14:41:41.546Z,13.40
2023-02-12T14:44:44.630Z,12.88
2023-02-12T14:47:37.846Z,11.55
2023-02-12T14:50:14.033Z,8.82
2023-02-12T14:52:49.866Z,13.45
2023-02-12T14:55:28.235Z,12.13
2023-02-12T14:58:00.391Z,12.45
2023-02-12T15:00:32.274Z,12.48
2023-02-12T15:03:08.278Z,10.43
2023-02-12T15:05:41.007Z,13.73
2023-02-12T15:08:19.684Z,11.48
2023-02-12T15:10:51.694Z,11.38
2023-02-12T15:13:29.410Z,13.07
2023-02-12T15:16:04.887Z,9.88
2023-02-12T15:18:46.815Z,10.18
2023-02-12T15:21:21.861Z,8.32
2023-02-12T15:24:01.850Z,9.55
2023-02-12T15:26:33.497Z,10.40
2023-02-12T15:29:02.366Z,8.05
2023-02-12T15:31:32.479Z,10.15
2023-02-12T15:34:03.342Z,9.25
2023-02-12T15:36:34.349Z,9.98
2023-02-12T15:39:07.746Z,10.75
2023-02-12T15:41:41.931Z,13.20
2023-02-12T15:44:24.594Z,9.50
2023-02-12T15:46:58.132Z,11.07
2023-02-12T15:49:29.313Z,11.32
2023-02-12T15:51:58.533Z,12.07
2023-02-12T15:54:28.823Z,13.95
2023-02-12T15:56:57.215Z,10.38
2023-02-12T15:59:29.244Z,11.85
2023-02-12T16:02:00.724Z,12.50
2023-02-12T16:04:31.973Z,14.80
2023-02-12T16:07:01.052Z,11.82
2023-02-12T16:09:35.021Z,12.20
2023-02-12T16:12:10.307Z,12.95
2023-02-12T16:14:44.634Z,22.92
2023-02-12T16:17:23.629Z,21.98
2023-02-12T16:19:56.237Z,16.40
2023-02-12T16:22:31.730Z,15.45
2023-02-12T16:25:02.031Z,13.38
2023-02-12T16:27:32.076Z,13.60
2023-02-12T16:30:02.252Z,13.75
2023-02-12T16:32:36.877Z,14.93
2023-02-12T16:35:24.306Z,17.20
2023-02-12T16:37:56.218Z,16.55
2023-02-12T16:40:32.989Z,15.20
2023-02-12T16:43:04.300Z,15.27
2023-02-12T16:45:43.449Z,15.15
2023-02-12T16:48:18.982Z,15.88
2023-02-12T16:50:51.029Z,16.60
2023-02-12T16:53:47.041Z,15.70
2023-02-12T16:56:21.028Z,16.92
2023-02-12T16:58:51.789Z,15.93
2023-02-12T17:01:23.752Z,18.63
2023-02-12T17:03:52.974Z,17.95
2023-02-12T17:06:23.418Z,17.92
2023-02-12T17:08:52.171Z,19.23
2023-02-12T17:11:23.138Z,16.88
2023-02-12T17:13:53.679Z,16.45
2023-02-12T17:16:30.729Z,16.85
2023-02-12T17:18:59.942Z,15.75
2023-02-12T17:21:30.586Z,16.15
2023-02-12T17:23:59.054Z,19.83
2023-02-12T17:26:28.892Z,16.83
2023-02-12T17:29:05.095Z,16.85
2023-02-12T17:31:34.040Z,16.73
2023-02-12T17:34:02.296Z,17.42
2023-02-12T17:36:30.591Z,23.10
2023-02-12T17:38:58.792Z,26.92
2023-02-12T17:41:28.333Z,42.67
2023-02-12T17:43:56.503Z,27.02
2023-02-12T17:46:27.648Z,27.02
2023-02-12T17:48:56.223Z,22.92
2023-02-12T17:51:24.415Z,21.13
2023-02-12T17:53:52.872Z,18.13
2023-02-12T17:56:22.959Z,19.92
2023-02-12T17:58:53.786Z,23.83
2023-02-12T18:01:24.129Z,19.67
2023-02-12T18:03:54.531Z,17.63
2023-02-12T18:06:25.160Z,18.65
2023-02-12T18:08:53.483Z,21.70
2023-02-12T18:11:21.834Z,17.00
2023-02-12T18:13:54.514Z,19.50
2023-02-12T18:16:23.749Z,18.98
2023-02-12T18:18:52.104Z,18.77
2023-02-12T18:21:20.681Z,19.23
2023-02-12T18:23:48.730Z,18.95
2023-02-12T18:26:18.963Z,20.98
2023-02-12T18:28:47.647Z,19.65
2023-02-12T18:31:17.152Z,21.02
2023-02-12T18:33:45.358Z,24.98
2023-02-12T18:36:16.320Z,31.23
2023-02-12T18:38:45.716Z,32.55
2023-02-12T18:41:15.854Z,28.92
2023-02-12T18:43:44.647Z,25.85
2023-02-12T18:46:14.437Z,25.27
2023-02-12T18:48:45.175Z,23.45
2023-02-12T18:51:17.019Z,24.25
2023-02-12T18:53:46.493Z,23.63
2023-02-12T18:56:14.662Z,25.45
2023-02-12T18:58:42.905Z,26.40
2023-02-12T19:01:15.823Z,26.33
2023-02-12T19:03:45.852Z,26.02
2023-02-12T19:06:14.421Z,26.77
2023-02-12T19:08:42.555Z,24.77
2023-02-12T19:11:13.808Z,24.35
2023-02-12T19:13:43.110Z,20.95
2023-02-12T19:16:13.702Z,24.17
2023-02-12T19:18:42.085Z,24.98
2023-02-12T19:21:16.307Z,20.95
2023-02-12T19:23:44.743Z,22.02
2023-02-12T19:26:14.827Z,22.17
2023-02-12T19:28:43.576Z,29.58
2023-02-12T19:31:14.301Z,22.52
2023-02-12T19:33:44.829Z,23.98
2023-02-12T19:36:17.828Z,20.45
2023-02-12T19:38:47.358Z,26.38
2023-02-12T19:41:17.120Z,24.23
2023-02-12T19:43:45.542Z,23.85
2023-02-12T19:46:16.185Z,26.30
2023-02-12T19:48:45.003Z,20.92
2023-02-12T19:51:16.819Z,23.33
2023-02-12T19:53:45.291Z,22.98
2023-02-12T19:56:14.032Z,25.52
2023-02-12T19:58:42.636Z,22.15
2023-02-12T20:01:12.288Z,24.27
2023-02-12T20:03:40.795Z,21.77
2023-02-12T20:06:10.863Z,22.55
2023-02-12T20:08:41.879Z,18.33
2023-02-12T20:11:12.065Z,17.10
2023-02-12T20:13:40.384Z,18.52
2023-02-12T20:16:10.543Z,16.95
2023-02-12T20:18:38.864Z,17.80
2023-02-12T20:21:10.699Z,15.68
2023-02-12T20:23:40.475Z,19.00
2023-02-12T20:26:09.928Z,16.05
2023-02-12T20:28:39.362Z,16.83
2023-02-12T20:31:12.046Z,15.80
2023-02-12T20:33:40.370Z,18.13
2023-02-12T20:36:10.143Z,13.45
2023-02-12T20:38:39.277Z,16.45
2023-02-12T20:41:10.034Z,20.05
2023-02-12T20:43:38.616Z,16.55
2023-02-12T20:46:07.749Z,17.70
2023-02-12T20:48:36.712Z,20.63
2023-02-12T20:51:05.607Z,24.25
2023-02-12T20:53:34.015Z,22.30
2023-02-12T20:56:02.977Z,20.23
2023-02-12T20:58:32.671Z,18.73
2023-02-12T21:01:07.900Z,19.42
2023-02-12T21:03:36.338Z,19.52
2023-02-12T21:06:05.089Z,20.63
2023-02-12T21:08:33.819Z,21.20
2023-02-12T21:11:02.703Z,20.20
2023-02-12T21:13:32.372Z,19.42
2023-02-12T21:16:06.523Z,20.85
2023-02-12T21:21:04.083Z,22.15
2023-02-12T21:23:33.257Z,20.77
2023-02-12T21:26:03.450Z,20.77
2023-02-12T21:28:34.130Z,21.17
2023-02-12T21:31:07.936Z,22.63
2023-02-12T21:33:36.544Z,24.77
2023-02-12T21:36:06.808Z,20.00
2023-02-12T21:38:38.049Z,22.77
2023-02-12T21:41:10.699Z,17.40
2023-02-12T21:43:42.101Z,20.10
2023-02-12T21:46:10.827Z,18.52
2023-02-12T21:48:40.043Z,18.23
2023-02-12T21:51:16.628Z,19.77
2023-02-12T21:53:44.803Z,20.85
2023-02-12T21:56:13.017Z,15.43
2023-02-12T21:58:43.070Z,18.50
2023-02-12T22:01:13.301Z,15.43
2023-02-12T22:03:42.010Z,17.38
2023-02-12T22:06:10.545Z,19.05
2023-02-12T22:08:38.986Z,16.05
2023-02-12T22:11:09.763Z,16.58
2023-02-12T22:13:38.495Z,14.50
2023-02-12T22:16:13.415Z,14.52
2023-02-12T22:18:42.828Z,19.95
2023-02-12T22:21:13.664Z,18.00
2023-02-12T22:23:43.331Z,15.20
2023-02-12T22:26:13.211Z,17.17
2023-02-12T22:28:42.732Z,14.40
2023-02-12T22:31:14.906Z,16.15
2023-02-12T22:33:43.061Z,16.60
2023-02-12T22:36:11.393Z,16.75
2023-02-12T22:38:41.374Z,16.58
2023-02-12T22:41:10.263Z,16.17
2023-02-12T22:43:40.284Z,17.00
2023-02-12T22:46:10.148Z,19.77
2023-02-12T22:48:40.269Z,17.42
2023-02-12T22:51:14.608Z,16.52
2023-02-12T22:56:10.851Z,17.33
2023-02-12T22:58:39.808Z,16.23
2023-02-12T23:01:09.094Z,16.63
2023-02-12T23:03:39.036Z,17.23
2023-02-12T23:06:11.442Z,14.13
2023-02-12T23:08:39.588Z,17.00
2023-02-12T23:11:08.633Z,17.33
2023-02-12T23:13:37.546Z,16.77
2023-02-12T23:16:06.050Z,17.17
2023-02-12T23:18:35.320Z,15.73
2023-02-12T23:21:05.146Z,15.70
2023-02-12T23:23:35.877Z,13.00
2023-02-12T23:26:04.517Z,16.85
2023-02-12T23:28:32.952Z,13.55
2023-02-12T23:31:01.654Z,14.63
2023-02-12T23:33:29.974Z,14.90
2023-02-12T23:35:58.138Z,15.88
2023-02-12T23:38:27.565Z,13.75
2023-02-12T23:40:56.228Z,15.68
2023-02-12T23:43:24.522Z,15.57
2023-02-12T23:45:52.681Z,16.10
2023-02-12T23:48:20.779Z,14.38
2023-02-12T23:50:50.012Z,16.02
2023-02-12T23:53:19.004Z,15.98
2023-02-12T23:55:51.296Z,13.50
2023-02-12T23:58:19.625Z,13.90
